createdAt,value
2022-12-27T00:00:44.623Z,7.09
2022-12-27T00:03:13.421Z,7.20
2022-12-27T00:05:45.210Z,7.15
2022-12-27T00:08:15.786Z,7.24
2022-12-27T00:10:44.620Z,7.19
2022-12-27T00:13:13.269Z,7.03
2022-12-27T00:15:42.624Z,7.15
2022-12-27T00:18:13.677Z,7.08
2022-12-27T00:20:42.369Z,7.20
2022-12-27T00:23:12.172Z,7.26
2022-12-27T00:25:42.678Z,7.17
2022-12-27T00:28:11.365Z,7.06
2022-12-27T00:30:40.137Z,7.06
2022-12-27T00:33:08.659Z,7.36
2022-12-27T00:35:40.305Z,7.40
2022-12-27T00:38:11.856Z,6.88
2022-12-27T00:40:43.340Z,7.19
2022-12-27T00:43:12.360Z,7.07
2022-12-27T00:45:41.172Z,7.05
2022-12-27T00:48:10.425Z,7.25
2022-12-27T00:50:40.764Z,7.16
2022-12-27T00:53:10.455Z,7.06
2022-12-27T00:55:39.928Z,7.30
2022-12-27T00:58:10.062Z,7.24
2022-12-27T01:00:39.263Z,7.30
2022-12-27T01:03:07.942Z,7.47
2022-12-27T01:05:39.319Z,7.38
2022-12-27T01:08:08.328Z,7.72
2022-12-27T01:10:37.784Z,7.74
2022-12-27T01:13:06.366Z,7.31
2022-12-27T01:15:36.588Z,7.63
2022-12-27T01:18:05.371Z,7.54
2022-12-27T01:20:33.917Z,7.70
2022-12-27T01:23:02.653Z,7.66
2022-12-27T01:25:32.266Z,7.55
2022-12-27T01:28:01.042Z,7.70
2022-12-27T01:30:29.984Z,7.85
2022-12-27T01:33:00.312Z,7.60
2022-12-27T01:35:29.684Z,7.89
2022-12-27T01:37:58.247Z,7.80
2022-12-27T01:40:27.101Z,7.96
2022-12-27T01:42:55.845Z,8.04
2022-12-27T01:45:26.876Z,8.00
2022-12-27T01:48:02.321Z,7.87
2022-12-27T01:50:38.576Z,7.82
2022-12-27T01:53:14.860Z,7.75
2022-12-27T01:55:49.674Z,7.83
2022-12-27T01:58:26.232Z,7.71
2022-12-27T02:00:55.906Z,7.96
2022-12-27T02:03:30.734Z,7.75
2022-12-27T02:06:02.596Z,8.03
2022-12-27T02:08:42.840Z,7.60
2022-12-27T02:11:12.444Z,7.87
2022-12-27T02:13:46.672Z,7.93
2022-12-27T02:16:18.601Z,7.88
2022-12-27T02:18:49.140Z,8.01
2022-12-27T02:21:52.536Z,8.13
2022-12-27T02:24:53.268Z,7.90
2022-12-27T02:27:47.105Z,7.98
2022-12-27T02:30:17.780Z,8.05
2022-12-27T02:32:56.088Z,7.95
2022-12-27T02:35:30.809Z,8.19
2022-12-27T02:38:05.998Z,8.21
2022-12-27T02:40:53.275Z,8.11
2022-12-27T02:43:39.574Z,7.75
2022-12-27T02:46:34.724Z,8.23
2022-12-27T02:49:22.482Z,8.13
2022-12-27T02:52:31.595Z,8.08
2022-12-27T02:55:28.909Z,8.10
2022-12-27T02:58:21.979Z,8.07
2022-12-27T03:01:20.633Z,7.82
2022-12-27T03:04:13.448Z,8.30
2022-12-27T03:06:58.177Z,8.22
2022-12-27T03:10:07.922Z,8.14
2022-12-27T03:13:14.570Z,7.96
2022-12-27T03:16:00.831Z,8.00
2022-12-27T03:18:39.419Z,8.15
2022-12-27T03:21:28.228Z,8.22
2022-12-27T03:24:18.116Z,8.20
2022-12-27T03:26:50.598Z,8.28
2022-12-27T03:29:40.577Z,8.23
2022-12-27T03:32:30.861Z,8.09
2022-12-27T03:35:09.590Z,8.04
2022-12-27T03:38:00.551Z,8.05
2022-12-27T03:41:03.171Z,7.65
2022-12-27T03:43:31.564Z,7.82
2022-12-27T03:46:26.986Z,7.92
2022-12-27T03:49:09.193Z,7.90
2022-12-27T03:51:43.194Z,7.88
2022-12-27T03:54:26.529Z,7.67
2022-12-27T03:57:01.080Z,7.56
2022-12-27T03:59:30.367Z,7.61
2022-12-27T04:02:02.508Z,7.56
2022-12-27T04:04:31.708Z,7.58
2022-12-27T04:07:01.215Z,7.40
2022-12-27T04:09:48.879Z,7.58
2022-12-27T04:12:34.704Z,7.43
2022-12-27T04:15:20.935Z,7.37
2022-12-27T04:18:06.971Z,7.45
2022-12-27T04:20:52.988Z,7.51
2022-12-27T04:23:39.325Z,7.43
2022-12-27T04:26:27.027Z,7.39
2022-12-27T04:29:13.213Z,7.47
2022-12-27T04:31:59.206Z,7.47
2022-12-27T04:34:43.915Z,7.19
2022-12-27T04:37:15.013Z,7.37
2022-12-27T04:40:03.871Z,7.41
2022-12-27T04:42:51.637Z,7.26
2022-12-27T04:45:37.778Z,7.25
2022-12-27T04:48:25.150Z,7.34
2022-12-27T04:51:11.209Z,7.27
2022-12-27T04:53:56.308Z,7.25
2022-12-27T04:56:24.707Z,7.15
2022-12-27T04:59:12.026Z,7.15
2022-12-27T05:01:58.553Z,7.12
2022-12-27T05:04:27.549Z,7.03
2022-12-27T05:06:56.436Z,6.96
2022-12-27T05:09:43.186Z,6.89
2022-12-27T05:12:29.955Z,6.84
2022-12-27T05:15:00.743Z,6.87
2022-12-27T05:17:31.925Z,6.83
2022-12-27T05:20:02.359Z,6.80
2022-12-27T05:22:49.039Z,6.67
2022-12-27T05:25:38.939Z,6.45
2022-12-27T05:28:10.297Z,6.85
2022-12-27T05:30:44.697Z,6.64
2022-12-27T05:33:14.153Z,6.78
2022-12-27T05:35:43.733Z,6.55
2022-12-27T05:38:12.529Z,6.61
2022-12-27T05:40:41.718Z,6.60
2022-12-27T05:43:10.938Z,6.86
2022-12-27T05:45:41.837Z,6.55
2022-12-27T05:48:10.840Z,6.75
2022-12-27T05:50:42.546Z,6.92
2022-12-27T05:53:12.302Z,6.47
2022-12-27T05:55:41.606Z,6.51
2022-12-27T05:58:10.392Z,6.81
2022-12-27T06:00:40.507Z,6.51
2022-12-27T06:03:09.239Z,6.47
2022-12-27T06:05:40.599Z,6.57
2022-12-27T06:08:10.195Z,6.47
2022-12-27T06:10:39.473Z,6.55
2022-12-27T06:13:08.552Z,6.68
2022-12-27T06:15:38.477Z,6.51
2022-12-27T06:18:08.888Z,6.60
2022-12-27T06:20:37.740Z,6.71
2022-12-27T06:23:08.003Z,6.51
2022-12-27T06:25:40.014Z,6.70
2022-12-27T06:28:08.853Z,6.65
2022-12-27T06:30:38.571Z,6.91
2022-12-27T06:33:11.711Z,6.64
2022-12-27T06:35:41.052Z,6.72
2022-12-27T06:38:10.502Z,6.65
2022-12-27T06:40:42.254Z,6.73
2022-12-27T06:43:11.199Z,6.73
2022-12-27T06:45:40.142Z,6.63
2022-12-27T06:48:10.550Z,6.56
2022-12-27T06:50:41.484Z,6.66
2022-12-27T06:53:10.413Z,6.52
2022-12-27T06:55:39.281Z,6.60
2022-12-27T06:58:07.726Z,6.55
2022-12-27T07:00:37.243Z,6.62
2022-12-27T07:03:06.580Z,6.58
2022-12-27T07:05:51.240Z,6.64
2022-12-27T07:08:27.087Z,6.68
2022-12-27T07:11:02.511Z,6.65
2022-12-27T07:13:34.692Z,6.69
2022-12-27T07:16:06.492Z,6.72
2022-12-27T07:18:35.874Z,6.58
2022-12-27T07:21:08.855Z,6.50
2022-12-27T07:23:39.893Z,6.85
2022-12-27T07:26:11.890Z,6.90
2022-12-27T07:28:41.092Z,6.95
2022-12-27T07:31:11.277Z,6.73
2022-12-27T07:33:40.910Z,6.77
2022-12-27T07:36:15.359Z,7.04
2022-12-27T07:38:45.756Z,6.90
2022-12-27T07:41:18.597Z,6.88
2022-12-27T07:43:48.224Z,6.88
2022-12-27T07:46:20.058Z,6.90
2022-12-27T07:48:49.582Z,6.85
2022-12-27T07:51:20.125Z,7.00
2022-12-27T07:53:50.696Z,6.96
2022-12-27T07:56:26.140Z,6.59
2022-12-27T07:58:57.500Z,7.04
2022-12-27T08:01:30.234Z,6.92
2022-12-27T08:03:59.968Z,6.63
2022-12-27T08:06:35.670Z,7.03
2022-12-27T08:09:07.843Z,7.03
2022-12-27T08:11:36.647Z,7.22
2022-12-27T08:14:05.492Z,7.01
2022-12-27T08:16:34.639Z,7.23
2022-12-27T08:19:08.142Z,7.35
2022-12-27T08:21:39.109Z,7.15
2022-12-27T08:24:08.421Z,7.05
2022-12-27T08:26:40.057Z,7.14
2022-12-27T08:29:09.121Z,7.07
2022-12-27T08:31:38.016Z,6.89
2022-12-27T08:34:07.583Z,7.37
2022-12-27T08:36:56.164Z,7.20
2022-12-27T08:39:30.363Z,7.41
2022-12-27T08:41:59.995Z,7.27
2022-12-27T08:44:29.578Z,7.33
2022-12-27T08:47:00.825Z,7.17
2022-12-27T08:49:29.727Z,7.33
2022-12-27T08:52:00.330Z,6.96
2022-12-27T08:54:29.871Z,7.29
2022-12-27T08:57:00.263Z,7.49
2022-12-27T08:59:29.394Z,7.67
2022-12-27T09:01:58.704Z,7.87
2022-12-27T09:04:27.709Z,7.89
2022-12-27T09:07:01.041Z,7.75
2022-12-27T09:09:31.345Z,8.03
2022-12-27T09:12:03.177Z,7.53
2022-12-27T09:14:36.345Z,8.12
2022-12-27T09:17:09.739Z,7.76
2022-12-27T09:19:39.747Z,8.10
2022-12-27T09:22:09.790Z,8.21
2022-12-27T09:24:41.117Z,8.01
2022-12-27T09:27:12.496Z,8.41
2022-12-27T09:29:46.422Z,8.57
2022-12-27T09:32:17.400Z,8.51
2022-12-27T09:34:48.681Z,8.70
2022-12-27T09:37:19.745Z,8.82
2022-12-27T09:39:48.694Z,8.79
2022-12-27T09:43:00.791Z,8.75
2022-12-27T09:45:40.225Z,8.76
2022-12-27T09:48:17.027Z,9.04
2022-12-27T09:50:52.425Z,8.78
2022-12-27T09:53:25.966Z,9.18
2022-12-27T09:55:58.071Z,8.93
2022-12-27T09:58:48.604Z,8.95
2022-12-27T10:01:25.169Z,9.06
2022-12-27T10:03:54.550Z,9.35
2022-12-27T10:06:51.023Z,9.54
2022-12-27T10:09:52.729Z,9.40
2022-12-27T10:12:53.483Z,9.49
2022-12-27T10:15:30.219Z,9.36
2022-12-27T10:18:15.982Z,9.41
2022-12-27T10:20:56.033Z,9.68
2022-12-27T10:23:30.215Z,9.66
2022-12-27T10:26:04.441Z,9.45
2022-12-27T10:28:41.139Z,9.75
2022-12-27T10:31:18.595Z,9.70
2022-12-27T10:33:49.434Z,9.71
2022-12-27T10:36:24.263Z,9.50
2022-12-27T10:38:53.512Z,9.56
2022-12-27T10:41:41.162Z,9.63
2022-12-27T10:44:13.727Z,10.14
2022-12-27T10:46:45.346Z,9.81
2022-12-27T10:49:29.283Z,10.17
2022-12-27T10:52:01.045Z,10.28
2022-12-27T10:54:31.646Z,10.00
2022-12-27T10:57:27.997Z,10.31
2022-12-27T11:00:18.794Z,10.10
2022-12-27T11:02:52.864Z,9.82
2022-12-27T11:05:33.205Z,10.57
2022-12-27T11:08:20.389Z,10.74
2022-12-27T11:10:49.753Z,10.57
2022-12-27T11:13:21.071Z,10.52
2022-12-27T11:15:59.117Z,10.86
2022-12-27T11:18:29.705Z,10.66
2022-12-27T11:21:01.499Z,11.01
2022-12-27T11:23:35.794Z,11.34
2022-12-27T11:26:09.185Z,11.21
2022-12-27T11:28:43.733Z,11.60
2022-12-27T11:31:19.821Z,11.19
2022-12-27T11:33:54.836Z,11.64
2022-12-27T11:36:40.916Z,11.87
2022-12-27T11:39:34.903Z,12.10
2022-12-27T11:42:06.966Z,11.88
2022-12-27T11:44:47.608Z,11.63
2022-12-27T11:47:33.197Z,11.34
2022-12-27T11:50:35.299Z,10.75
2022-12-27T11:54:13.789Z,11.21
2022-12-27T11:56:47.594Z,10.76
2022-12-27T11:59:55.331Z,11.21
2022-12-27T12:03:13.684Z,10.60
2022-12-27T12:06:15.941Z,10.22
2022-12-27T12:09:46.651Z,10.83
2022-12-27T12:13:12.819Z,11.00
2022-12-27T12:16:24.987Z,10.53
2022-12-27T12:19:14.386Z,10.95
2022-12-27T12:22:02.323Z,10.71
2022-12-27T12:25:02.252Z,10.83
2022-12-27T12:27:52.974Z,10.51
2022-12-27T12:31:02.513Z,10.77
2022-12-27T12:34:00.578Z,10.62
2022-12-27T12:36:53.737Z,10.25
2022-12-27T12:39:36.934Z,10.35
2022-12-27T12:42:22.457Z,10.56
2022-12-27T12:45:42.362Z,9.98
2022-12-27T12:49:04.903Z,10.06
2022-12-27T12:51:51.653Z,10.27
2022-12-27T12:54:43.687Z,10.12
2022-12-27T12:57:30.317Z,10.00
2022-12-27T13:00:30.760Z,10.02
2022-12-27T13:03:46.163Z,10.29
2022-12-27T13:06:37.063Z,10.39
2022-12-27T13:09:26.038Z,10.12
2022-12-27T13:12:05.660Z,10.17
2022-12-27T13:15:05.619Z,10.63
2022-12-27T13:17:45.549Z,9.93
2022-12-27T13:20:46.069Z,10.32
2022-12-27T13:23:28.255Z,10.04
2022-12-27T13:26:15.049Z,10.25
2022-12-27T13:28:56.616Z,10.12
2022-12-27T13:31:37.229Z,10.34
2022-12-27T13:34:29.566Z,9.82
2022-12-27T13:37:23.248Z,10.31
2022-12-27T13:40:12.579Z,10.02
2022-12-27T13:43:07.110Z,10.67
2022-12-27T13:49:25.508Z,10.14
2022-12-27T13:52:07.857Z,10.48
2022-12-27T13:55:22.049Z,10.50
2022-12-27T13:58:52.480Z,10.65
2022-12-27T14:01:54.373Z,10.42
2022-12-27T14:04:59.725Z,10.83
2022-12-27T14:08:01.599Z,10.29
2022-12-27T14:10:38.518Z,10.03
2022-12-27T14:13:09.492Z,10.53
2022-12-27T14:16:23.196Z,10.78
2022-12-27T14:19:19.565Z,10.41
2022-12-27T14:22:30.434Z,10.54
2022-12-27T14:26:00.746Z,10.46
2022-12-27T14:29:32.787Z,10.38
2022-12-27T14:32:57.340Z,10.42
2022-12-27T14:36:27.983Z,10.52
2022-12-27T14:39:51.222Z,10.86
2022-12-27T14:43:07.505Z,10.71
2022-12-27T14:46:26.361Z,9.96
2022-12-27T14:49:53.097Z,10.42
2022-12-27T14:53:22.522Z,10.30
2022-12-27T14:56:17.167Z,10.39
2022-12-27T14:59:11.850Z,10.21
2022-12-27T15:02:00.839Z,10.49
2022-12-27T15:04:51.674Z,10.08
2022-12-27T15:08:07.174Z,10.34
2022-12-27T15:10:59.704Z,10.15
2022-12-27T15:13:52.068Z,10.09
2022-12-27T15:16:34.094Z,10.16
2022-12-27T15:19:21.697Z,9.97
2022-12-27T15:22:02.087Z,9.79
2022-12-27T15:24:54.318Z,9.70
2022-12-27T15:27:34.405Z,9.69
2022-12-27T15:30:21.755Z,10.26
2022-12-27T15:33:04.559Z,10.16
2022-12-27T15:36:00.910Z,10.60
2022-12-27T15:38:53.627Z,9.73
2022-12-27T15:41:49.167Z,10.05
2022-12-27T15:44:56.534Z,10.23
2022-12-27T15:48:38.435Z,9.94
2022-12-27T15:51:21.863Z,10.28
2022-12-27T15:54:24.176Z,10.14
2022-12-27T15:57:22.460Z,10.06
2022-12-27T15:59:58.415Z,9.88
2022-12-27T16:02:35.990Z,9.79
2022-12-27T16:05:35.560Z,9.74
2022-12-27T16:08:31.636Z,10.07
2022-12-27T16:11:02.091Z,10.01
2022-12-27T16:13:50.999Z,9.89
2022-12-27T16:16:53.729Z,9.74
2022-12-27T16:20:12.463Z,9.81
2022-12-27T16:22:45.740Z,9.72
2022-12-27T16:25:33.331Z,9.76
2022-12-27T16:28:10.381Z,9.88
2022-12-27T16:30:48.973Z,9.56
2022-12-27T16:33:37.630Z,9.81
2022-12-27T16:36:28.869Z,9.68
2022-12-27T16:39:45.999Z,9.55
2022-12-27T16:42:15.922Z,9.26
2022-12-27T16:45:25.870Z,9.67
2022-12-27T16:48:19.243Z,9.30
2022-12-27T16:51:13.931Z,9.49
2022-12-27T16:54:26.245Z,9.72
2022-12-27T16:57:31.947Z,9.26
2022-12-27T17:00:06.771Z,9.59
2022-12-27T17:02:42.411Z,9.40
2022-12-27T17:05:44.777Z,9.57
2022-12-27T17:08:23.376Z,9.23
2022-12-27T17:11:20.623Z,9.81
2022-12-27T17:13:53.098Z,9.25
2022-12-27T17:16:26.548Z,9.22
2022-12-27T17:19:01.541Z,9.67
2022-12-27T17:21:32.960Z,9.57
2022-12-27T17:24:08.017Z,9.56
2022-12-27T17:27:04.853Z,9.78
2022-12-27T17:30:06.277Z,9.25
2022-12-27T17:33:07.651Z,9.65
2022-12-27T17:35:55.789Z,9.56
2022-12-27T17:38:42.402Z,9.77
2022-12-27T17:41:42.316Z,9.76
2022-12-27T17:44:40.504Z,9.17
2022-12-27T17:47:38.494Z,9.22
2022-12-27T17:50:15.032Z,9.45
2022-12-27T17:53:19.278Z,9.31
2022-12-27T17:56:20.416Z,9.55
2022-12-27T17:58:58.047Z,9.05
2022-12-27T18:01:33.666Z,9.49
2022-12-27T18:04:04.024Z,9.65
2022-12-27T18:06:39.943Z,9.39
2022-12-27T18:09:14.051Z,9.49
2022-12-27T18:11:47.026Z,9.29
2022-12-27T18:14:17.051Z,9.03
2022-12-27T18:16:49.447Z,9.21
2022-12-27T18:19:21.610Z,9.56
2022-12-27T18:21:57.783Z,9.31
2022-12-27T18:24:42.112Z,9.70
2022-12-27T18:27:19.817Z,9.60
2022-12-27T18:29:50.951Z,9.41
2022-12-27T18:32:22.098Z,9.47
2022-12-27T18:34:58.689Z,9.68
2022-12-27T18:37:28.678Z,9.84
2022-12-27T18:40:01.373Z,9.68
2022-12-27T18:42:35.625Z,9.46
2022-12-27T18:45:08.264Z,9.36
2022-12-27T18:47:49.691Z,9.67
2022-12-27T18:50:22.015Z,9.68
2022-12-27T18:53:05.356Z,9.25
2022-12-27T18:55:38.216Z,9.69
2022-12-27T18:58:20.254Z,9.37
2022-12-27T19:00:55.114Z,9.40
2022-12-27T19:03:27.421Z,9.65
2022-12-27T19:06:08.008Z,9.44
2022-12-27T19:08:44.485Z,9.12
2022-12-27T19:11:24.408Z,9.19
2022-12-27T19:13:57.508Z,9.24
2022-12-27T19:16:30.470Z,9.17
2022-12-27T19:19:09.103Z,9.18
2022-12-27T19:21:44.528Z,9.06
2022-12-27T19:24:42.230Z,9.42
2022-12-27T19:27:25.247Z,8.99
2022-12-27T19:29:58.750Z,9.18
2022-12-27T19:32:41.955Z,9.34
2022-12-27T19:35:18.235Z,9.29
2022-12-27T19:40:30.678Z,9.07
2022-12-27T19:43:02.506Z,9.10
2022-12-27T19:45:34.355Z,9.03
2022-12-27T19:48:14.456Z,9.03
2022-12-27T19:50:52.040Z,9.06
2022-12-27T19:53:34.121Z,8.87
2022-12-27T19:56:08.861Z,9.12
2022-12-27T19:58:39.187Z,9.27
2022-12-27T20:01:13.138Z,9.15
2022-12-27T20:03:48.870Z,9.28
2022-12-27T20:06:35.399Z,9.17
2022-12-27T20:09:12.723Z,9.35
2022-12-27T20:11:45.905Z,8.87
2022-12-27T20:14:17.835Z,8.90
2022-12-27T20:16:55.263Z,9.31
2022-12-27T20:19:42.685Z,8.79
2022-12-27T20:22:13.434Z,8.87
2022-12-27T20:24:43.266Z,9.35
2022-12-27T20:27:12.735Z,9.19
2022-12-27T20:29:41.970Z,9.07
2022-12-27T20:32:10.796Z,9.01
2022-12-27T20:34:39.546Z,9.53
2022-12-27T20:37:13.041Z,9.17
2022-12-27T20:39:42.211Z,8.81
2022-12-27T20:42:14.472Z,8.86
2022-12-27T20:44:51.681Z,9.38
2022-12-27T20:47:21.297Z,9.03
2022-12-27T20:49:52.217Z,9.17
2022-12-27T20:52:30.806Z,9.14
2022-12-27T20:55:00.772Z,8.96
2022-12-27T20:57:30.001Z,9.61
2022-12-27T21:00:01.222Z,9.07
2022-12-27T21:02:36.544Z,9.54
2022-12-27T21:05:07.340Z,9.44
2022-12-27T21:07:38.299Z,9.15
2022-12-27T21:10:11.003Z,9.13
2022-12-27T21:12:40.908Z,9.21
2022-12-27T21:15:11.588Z,8.91
2022-12-27T21:17:40.945Z,9.34
2022-12-27T21:20:11.765Z,9.40
2022-12-27T21:22:42.207Z,9.26
2022-12-27T21:25:11.029Z,9.45
2022-12-27T21:27:39.503Z,9.22
2022-12-27T21:30:10.020Z,9.40
2022-12-27T21:32:38.445Z,9.47
2022-12-27T21:35:08.605Z,9.51
2022-12-27T21:41:06.219Z,9.25
2022-12-27T21:43:35.541Z,9.56
2022-12-27T21:46:08.486Z,9.31
2022-12-27T21:51:29.908Z,9.66
2022-12-27T21:53:58.901Z,9.71
2022-12-27T21:56:29.333Z,9.38
2022-12-27T21:58:59.572Z,9.12
2022-12-27T22:01:31.119Z,9.03
2022-12-27T22:04:19.880Z,9.58
2022-12-27T22:06:53.050Z,9.54
2022-12-27T22:09:21.979Z,9.18
2022-12-27T22:11:52.483Z,9.61
2022-12-27T22:14:25.437Z,9.30
2022-12-27T22:16:54.867Z,9.37
2022-12-27T22:19:23.461Z,9.10
2022-12-27T22:21:52.293Z,9.35
2022-12-27T22:24:21.653Z,9.37
2022-12-27T22:26:51.958Z,8.94
2022-12-27T22:29:22.080Z,9.11
2022-12-27T22:31:51.149Z,9.28
2022-12-27T22:34:20.166Z,9.21
2022-12-27T22:36:53.269Z,8.79
2022-12-27T22:39:21.867Z,9.22
2022-12-27T22:41:52.073Z,8.83
2022-12-27T22:44:21.321Z,8.93
2022-12-27T22:47:25.883Z,8.81
2022-12-27T22:49:40.858Z,8.96
2022-12-27T22:52:09.655Z,8.69
2022-12-27T22:55:05.145Z,8.83
2022-12-27T22:57:28.728Z,9.04
2022-12-27T22:59:57.619Z,9.10
2022-12-27T23:02:26.451Z,8.66
2022-12-27T23:04:55.387Z,8.67
2022-12-27T23:08:05.048Z,8.48
2022-12-27T23:10:12.372Z,8.63
2022-12-27T23:12:42.595Z,8.71
2022-12-27T23:15:13.025Z,9.06
2022-12-27T23:17:41.808Z,8.81
2022-12-27T23:20:12.507Z,8.69
2022-12-27T23:22:41.282Z,8.57
2022-12-27T23:25:10.479Z,8.84
2022-12-27T23:27:38.989Z,8.57
2022-12-27T23:30:11.436Z,9.20
2022-12-27T23:32:39.853Z,9.04
2022-12-27T23:35:09.250Z,8.52
2022-12-27T23:37:38.048Z,8.72
2022-12-27T23:40:09.186Z,8.81
2022-12-27T23:42:37.845Z,8.83
2022-12-27T23:45:09.116Z,9.04
2022-12-27T23:47:37.674Z,8.81
2022-12-27T23:50:08.561Z,8.94
2022-12-27T23:52:37.342Z,8.28
2022-12-27T23:55:07.572Z,8.89
2022-12-27T23:57:36.313Z,8.94
